sensor_id;sensor_type;location;lat;lon;timestamp;pressure;altitude;pressure_sealevel;temperature;humidity
69219;BME280;56232;53.384;-2.732;2023-06-22T00:00:58;101445.78;;;19.03;25.30
69219;BME280;56232;53.384;-2.732;2023-06-22T00:03:23;101448.15;;;19.47;25.29
69219;BME280;56232;53.384;-2.732;2023-06-22T00:05:48;101451.95;;;18.92;25.28
69219;BME280;56232;53.384;-2.732;2023-06-22T00:08:14;101448.21;;;18.85;25.29
69219;BME280;56232;53.384;-2.732;2023-06-22T00:10:40;101448.59;;;18.76;25.37
69219;BME280;56232;53.384;-2.732;2023-06-22T00:13:06;101445.77;;;18.63;25.41
69219;BME280;56232;53.384;-2.732;2023-06-22T00:15:32;101443.54;;;19.53;25.55
69219;BME280;56232;53.384;-2.732;2023-06-22T00:17:56;101441.94;;;18.47;25.56
69219;BME280;56232;53.384;-2.732;2023-06-22T00:20:22;101442.64;;;18.90;25.61
69219;BME280;56232;53.384;-2.732;2023-06-22T00:22:47;101440.06;;;18.85;25.65
69219;BME280;56232;53.384;-2.732;2023-06-22T00:25:13;101441.21;;;19.32;25.68
69219;BME280;56232;53.384;-2.732;2023-06-22T00:27:38;101439.20;;;18.27;25.74
69219;BME280;56232;53.384;-2.732;2023-06-22T00:30:05;101442.85;;;18.23;25.76
69219;BME280;56232;53.384;-2.732;2023-06-22T00:32:30;101445.59;;;18.74;25.70
69219;BME280;56232;53.384;-2.732;2023-06-22T00:34:55;101445.06;;;18.78;25.66
69219;BME280;56232;53.384;-2.732;2023-06-22T00:37:21;101446.20;;;18.80;25.61
69219;BME280;56232;53.384;-2.732;2023-06-22T00:39:46;101446.02;;;18.26;25.59
69219;BME280;56232;53.384;-2.732;2023-06-22T00:42:12;101440.25;;;19.16;25.61
69219;BME280;56232;53.384;-2.732;2023-06-22T00:44:37;101442.88;;;18.09;25.66
69219;BME280;56232;53.384;-2.732;2023-06-22T00:47:03;101445.55;;;19.06;25.64
69219;BME280;56232;53.384;-2.732;2023-06-22T00:49:30;101447.49;;;19.02;25.61
69219;BME280;56232;53.384;-2.732;2023-06-22T00:51:54;101447.39;;;18.97;25.59
69219;BME280;56232;53.384;-2.732;2023-06-22T00:54:20;101446.82;;;17.94;25.64
69219;BME280;56232;53.384;-2.732;2023-06-22T00:56:46;101447.07;;;18.92;25.69
69219;BME280;56232;53.384;-2.732;2023-06-22T00:59:11;101446.30;;;18.86;25.71
69219;BME280;56232;53.384;-2.732;2023-06-22T01:01:37;101446.74;;;18.32;25.72
69219;BME280;56232;53.384;-2.732;2023-06-22T01:04:02;101444.66;;;18.27;25.79
69219;BME280;56232;53.384;-2.732;2023-06-22T01:06:35;101442.40;;;19.31;25.78
69219;BME280;56232;53.384;-2.732;2023-06-22T01:09:00;101443.49;;;18.63;25.81
69219;BME280;56232;53.384;-2.732;2023-06-22T01:11:24;101448.31;;;18.64;25.81
69219;BME280;56232;53.384;-2.732;2023-06-22T01:13:48;101450.40;;;18.63;25.81
69219;BME280;56232;53.384;-2.732;2023-06-22T01:16:14;101453.66;;;18.66;25.78
69219;BME280;56232;53.384;-2.732;2023-06-22T01:18:39;101450.10;;;18.68;25.75
69219;BME280;56232;53.384;-2.732;2023-06-22T01:21:02;101451.44;;;18.71;25.71
69219;BME280;56232;53.384;-2.732;2023-06-22T01:23:35;101452.76;;;19.26;25.72
69219;BME280;56232;53.384;-2.732;2023-06-22T01:25:59;101450.23;;;18.66;25.71
69219;BME280;56232;53.384;-2.732;2023-06-22T01:30:46;101455.30;;;18.13;25.71
69219;BME280;56232;53.384;-2.732;2023-06-22T01:33:11;101455.88;;;18.58;25.70
69219;BME280;56232;53.384;-2.732;2023-06-22T01:35:35;101456.52;;;17.99;25.72
69219;BME280;56232;53.384;-2.732;2023-06-22T01:38:01;101455.99;;;18.46;25.70
69219;BME280;56232;53.384;-2.732;2023-06-22T01:40:28;101460.17;;;19.52;25.71
69219;BME280;56232;53.384;-2.732;2023-06-22T01:42:53;101466.72;;;18.94;25.73
69219;BME280;56232;53.384;-2.732;2023-06-22T01:45:18;101474.94;;;18.27;25.70
69219;BME280;56232;53.384;-2.732;2023-06-22T01:47:44;101478.32;;;18.17;25.75
69219;BME280;56232;53.384;-2.732;2023-06-22T01:50:09;101480.28;;;18.05;25.84
69219;BME280;56232;53.384;-2.732;2023-06-22T01:52:34;101483.43;;;17.95;25.89
69219;BME280;56232;53.384;-2.732;2023-06-22T01:55:00;101483.41;;;18.50;25.91
69219;BME280;56232;53.384;-2.732;2023-06-22T01:57:26;101484.15;;;18.51;25.93
69219;BME280;56232;53.384;-2.732;2023-06-22T01:59:58;101483.09;;;17.91;25.90
69219;BME280;56232;53.384;-2.732;2023-06-22T02:02:19;101486.04;;;17.89;25.89
69219;BME280;56232;53.384;-2.732;2023-06-22T02:04:46;101488.89;;;18.51;25.85
69219;BME280;56232;53.384;-2.732;2023-06-22T02:07:12;101490.58;;;17.91;25.88
69219;BME280;56232;53.384;-2.732;2023-06-22T02:09:35;101492.50;;;18.54;25.90
69219;BME280;56232;53.384;-2.732;2023-06-22T02:12:00;101494.48;;;18.67;25.85
69219;BME280;56232;53.384;-2.732;2023-06-22T02:14:25;101497.66;;;18.14;25.81
69219;BME280;56232;53.384;-2.732;2023-06-22T02:16:51;101502.29;;;17.74;25.78
69219;BME280;56232;53.384;-2.732;2023-06-22T02:19:16;101505.05;;;18.33;25.75
69219;BME280;56232;53.384;-2.732;2023-06-22T02:21:42;101503.55;;;18.30;25.79
69219;BME280;56232;53.384;-2.732;2023-06-22T02:24:07;101502.38;;;17.74;25.78
69219;BME280;56232;53.384;-2.732;2023-06-22T02:26:33;101501.46;;;18.16;25.79
69219;BME280;56232;53.384;-2.732;2023-06-22T02:28:59;101496.15;;;18.67;25.80
69219;BME280;56232;53.384;-2.732;2023-06-22T02:31:24;101494.62;;;17.98;25.82
69219;BME280;56232;53.384;-2.732;2023-06-22T02:33:50;101495.81;;;17.95;25.80
69219;BME280;56232;53.384;-2.732;2023-06-22T02:36:16;101498.84;;;17.85;25.84
69219;BME280;56232;53.384;-2.732;2023-06-22T02:38:42;101502.79;;;18.82;25.88
69219;BME280;56232;53.384;-2.732;2023-06-22T02:41:07;101505.05;;;17.64;25.90
69219;BME280;56232;53.384;-2.732;2023-06-22T02:43:33;101508.18;;;18.10;25.94
69219;BME280;56232;53.384;-2.732;2023-06-22T02:45:58;101509.80;;;17.44;25.96
69219;BME280;56232;53.384;-2.732;2023-06-22T02:48:24;101507.88;;;17.98;25.95
69219;BME280;56232;53.384;-2.732;2023-06-22T02:50:49;101505.64;;;18.39;25.95
69219;BME280;56232;53.384;-2.732;2023-06-22T02:53:15;101502.54;;;18.24;26.00
69219;BME280;56232;53.384;-2.732;2023-06-22T02:55:41;101501.97;;;17.60;26.05
69219;BME280;56232;53.384;-2.732;2023-06-22T02:58:07;101502.20;;;18.01;26.10
69219;BME280;56232;53.384;-2.732;2023-06-22T03:00:32;101502.70;;;17.90;26.10
69219;BME280;56232;53.384;-2.732;2023-06-22T03:02:58;101503.06;;;17.81;26.19
69219;BME280;56232;53.384;-2.732;2023-06-22T03:05:24;101503.20;;;17.24;26.21
69219;BME280;56232;53.384;-2.732;2023-06-22T03:07:49;101504.57;;;17.72;26.21
69219;BME280;56232;53.384;-2.732;2023-06-22T03:10:15;101503.88;;;17.69;26.23
69219;BME280;56232;53.384;-2.732;2023-06-22T03:12:41;101503.27;;;17.71;26.21
69219;BME280;56232;53.384;-2.732;2023-06-22T03:15:08;101504.31;;;17.72;26.29
69219;BME280;56232;53.384;-2.732;2023-06-22T03:17:33;101503.45;;;17.75;26.37
69219;BME280;56232;53.384;-2.732;2023-06-22T03:19:58;101504.46;;;17.90;26.39
69219;BME280;56232;53.384;-2.732;2023-06-22T03:22:23;101505.88;;;18.08;26.37
69219;BME280;56232;53.384;-2.732;2023-06-22T03:24:49;101507.00;;;18.30;26.40
69219;BME280;56232;53.384;-2.732;2023-06-22T03:27:14;101511.24;;;17.37;26.46
69219;BME280;56232;53.384;-2.732;2023-06-22T03:29:40;101514.40;;;18.09;26.58
69219;BME280;56232;53.384;-2.732;2023-06-22T03:32:06;101517.84;;;17.59;26.85
69219;BME280;56232;53.384;-2.732;2023-06-22T03:34:32;101518.72;;;18.78;26.78
69219;BME280;56232;53.384;-2.732;2023-06-22T03:36:57;101517.14;;;18.35;26.76
69219;BME280;56232;53.384;-2.732;2023-06-22T03:39:23;101519.66;;;17.86;26.67
69219;BME280;56232;53.384;-2.732;2023-06-22T03:41:48;101524.35;;;18.49;26.75
69219;BME280;56232;53.384;-2.732;2023-06-22T03:44:14;101526.77;;;18.52;26.80
69219;BME280;56232;53.384;-2.732;2023-06-22T03:46:40;101528.22;;;17.83;26.92
69219;BME280;56232;53.384;-2.732;2023-06-22T03:49:05;101527.67;;;18.88;26.84
69219;BME280;56232;53.384;-2.732;2023-06-22T03:51:32;101525.34;;;18.30;26.69
69219;BME280;56232;53.384;-2.732;2023-06-22T03:53:57;101522.97;;;18.20;26.66
69219;BME280;56232;53.384;-2.732;2023-06-22T03:56:22;101524.96;;;18.58;26.44
69219;BME280;56232;53.384;-2.732;2023-06-22T03:58:48;101523.90;;;17.94;26.57
69219;BME280;56232;53.384;-2.732;2023-06-22T04:01:14;101521.45;;;18.32;26.81
69219;BME280;56232;53.384;-2.732;2023-06-22T04:03:40;101522.09;;;18.20;27.01
69219;BME280;56232;53.384;-2.732;2023-06-22T04:06:05;101524.50;;;18.09;27.37
69219;BME280;56232;53.384;-2.732;2023-06-22T04:08:32;101524.62;;;17.51;27.65
69219;BME280;56232;53.384;-2.732;2023-06-22T04:10:56;101525.92;;;17.97;27.48
69219;BME280;56232;53.384;-2.732;2023-06-22T04:13:22;101525.51;;;17.47;27.84
69219;BME280;56232;53.384;-2.732;2023-06-22T04:15:47;101524.29;;;17.48;27.80
69219;BME280;56232;53.384;-2.732;2023-06-22T04:18:12;101524.98;;;17.99;27.71
69219;BME280;56232;53.384;-2.732;2023-06-22T04:20:38;101526.29;;;16.95;27.66
69219;BME280;56232;53.384;-2.732;2023-06-22T04:23:04;101527.22;;;18.12;27.48
69219;BME280;56232;53.384;-2.732;2023-06-22T04:25:30;101527.86;;;17.66;27.40
69219;BME280;56232;53.384;-2.732;2023-06-22T04:27:55;101529.36;;;18.26;27.16
69219;BME280;56232;53.384;-2.732;2023-06-22T04:30:20;101528.52;;;17.86;27.10
69219;BME280;56232;53.384;-2.732;2023-06-22T04:32:46;101525.10;;;17.32;27.20
69219;BME280;56232;53.384;-2.732;2023-06-22T04:35:11;101530.77;;;18.04;27.25
69219;BME280;56232;53.384;-2.732;2023-06-22T04:37:37;101530.47;;;17.47;27.32
69219;BME280;56232;53.384;-2.732;2023-06-22T04:40:03;101536.44;;;18.22;27.47
69219;BME280;56232;53.384;-2.732;2023-06-22T04:42:29;101538.84;;;18.35;27.44
69219;BME280;56232;53.384;-2.732;2023-06-22T04:44:54;101542.79;;;17.87;27.40
69219;BME280;56232;53.384;-2.732;2023-06-22T04:47:19;101546.31;;;18.01;27.30
69219;BME280;56232;53.384;-2.732;2023-06-22T04:49:44;101546.29;;;18.26;27.35
69219;BME280;56232;53.384;-2.732;2023-06-22T04:52:12;101541.68;;;18.50;27.27
69219;BME280;56232;53.384;-2.732;2023-06-22T04:54:37;101538.31;;;18.66;27.43
69219;BME280;56232;53.384;-2.732;2023-06-22T04:57:02;101534.21;;;18.72;27.50
69219;BME280;56232;53.384;-2.732;2023-06-22T04:59:28;101536.22;;;18.76;27.79
69219;BME280;56232;53.384;-2.732;2023-06-22T05:01:52;101539.63;;;18.85;28.54
69219;BME280;56232;53.384;-2.732;2023-06-22T05:04:18;101538.42;;;18.92;28.21
69219;BME280;56232;53.384;-2.732;2023-06-22T05:06:44;101539.00;;;18.99;28.41
69219;BME280;56232;53.384;-2.732;2023-06-22T05:09:09;101538.51;;;19.02;28.54
69219;BME280;56232;53.384;-2.732;2023-06-22T05:11:35;101535.51;;;18.13;28.77
69219;BME280;56232;53.384;-2.732;2023-06-22T05:14:01;101535.24;;;18.75;28.09
69219;BME280;56232;53.384;-2.732;2023-06-22T05:16:26;101534.03;;;19.26;28.20
69219;BME280;56232;53.384;-2.732;2023-06-22T05:18:53;101533.84;;;19.40;27.64
69219;BME280;56232;53.384;-2.732;2023-06-22T05:21:18;101536.46;;;19.55;27.79
69219;BME280;56232;53.384;-2.732;2023-06-22T05:23:43;101540.33;;;19.22;28.13
69219;BME280;56232;53.384;-2.732;2023-06-22T05:26:09;101536.30;;;19.88;27.78
69219;BME280;56232;53.384;-2.732;2023-06-22T05:28:34;101537.49;;;19.11;28.30
69219;BME280;56232;53.384;-2.732;2023-06-22T05:30:59;101539.67;;;19.35;27.51
69219;BME280;56232;53.384;-2.732;2023-06-22T05:33:25;101540.62;;;19.59;27.53
69219;BME280;56232;53.384;-2.732;2023-06-22T05:35:50;101539.19;;;19.77;26.42
69219;BME280;56232;53.384;-2.732;2023-06-22T05:38:16;101541.80;;;19.95;27.62
69219;BME280;56232;53.384;-2.732;2023-06-22T05:40:42;101546.99;;;20.18;27.90
69219;BME280;56232;53.384;-2.732;2023-06-22T05:43:07;101545.30;;;20.41;26.99
69219;BME280;56232;53.384;-2.732;2023-06-22T05:45:33;101545.36;;;21.15;27.36
69219;BME280;56232;53.384;-2.732;2023-06-22T05:47:58;101537.50;;;20.15;26.73
69219;BME280;56232;53.384;-2.732;2023-06-22T05:50:24;101538.37;;;20.33;26.49
69219;BME280;56232;53.384;-2.732;2023-06-22T05:52:49;101543.78;;;21.03;25.92
69219;BME280;56232;53.384;-2.732;2023-06-22T05:55:15;101545.76;;;20.60;26.58
69219;BME280;56232;53.384;-2.732;2023-06-22T05:57:40;101547.37;;;20.33;27.59
69219;BME280;56232;53.384;-2.732;2023-06-22T06:00:07;101548.62;;;21.25;28.57
69219;BME280;56232;53.384;-2.732;2023-06-22T06:02:32;101548.15;;;21.61;27.56
69219;BME280;56232;53.384;-2.732;2023-06-22T06:04:57;101546.16;;;21.40;28.08
69219;BME280;56232;53.384;-2.732;2023-06-22T06:07:22;101543.65;;;21.66;27.83
69219;BME280;56232;53.384;-2.732;2023-06-22T06:09:48;101544.64;;;21.93;26.66
69219;BME280;56232;53.384;-2.732;2023-06-22T06:12:13;101542.60;;;22.03;26.18
69219;BME280;56232;53.384;-2.732;2023-06-22T06:14:39;101540.91;;;22.12;26.75
69219;BME280;56232;53.384;-2.732;2023-06-22T06:17:04;101542.07;;;22.36;26.61
69219;BME280;56232;53.384;-2.732;2023-06-22T06:19:32;101542.68;;;23.01;26.77
69219;BME280;56232;53.384;-2.732;2023-06-22T06:21:56;101547.93;;;23.79;26.34
69219;BME280;56232;53.384;-2.732;2023-06-22T06:24:21;101558.08;;;25.24;25.90
69219;BME280;56232;53.384;-2.732;2023-06-22T06:26:47;101555.62;;;25.13;26.04
69219;BME280;56232;53.384;-2.732;2023-06-22T06:29:12;101550.91;;;25.32;24.53
69219;BME280;56232;53.384;-2.732;2023-06-22T06:31:38;101548.24;;;24.15;24.06
69219;BME280;56232;53.384;-2.732;2023-06-22T06:34:03;101547.11;;;24.65;24.18
69219;BME280;56232;53.384;-2.732;2023-06-22T06:36:29;101545.49;;;25.01;23.72
69219;BME280;56232;53.384;-2.732;2023-06-22T06:38:55;101542.93;;;25.09;23.50
69219;BME280;56232;53.384;-2.732;2023-06-22T06:41:20;101546.24;;;29.06;21.16
69219;BME280;56232;53.384;-2.732;2023-06-22T06:43:46;101549.35;;;31.49;20.13
69219;BME280;56232;53.384;-2.732;2023-06-22T06:46:11;101553.40;;;33.55;17.91
69219;BME280;56232;53.384;-2.732;2023-06-22T06:48:37;101558.67;;;33.67;17.97
69219;BME280;56232;53.384;-2.732;2023-06-22T06:51:02;101560.92;;;31.96;18.41
69219;BME280;56232;53.384;-2.732;2023-06-22T06:53:28;101571.20;;;34.31;17.73
69219;BME280;56232;53.384;-2.732;2023-06-22T06:55:54;101573.96;;;37.13;15.92
69219;BME280;56232;53.384;-2.732;2023-06-22T06:58:19;101577.72;;;37.51;14.44
69219;BME280;56232;53.384;-2.732;2023-06-22T07:00:45;101581.90;;;36.93;15.44
69219;BME280;56232;53.384;-2.732;2023-06-22T07:03:10;101583.27;;;35.40;15.05
69219;BME280;56232;53.384;-2.732;2023-06-22T07:05:36;101582.57;;;37.17;14.42
69219;BME280;56232;53.384;-2.732;2023-06-22T07:08:01;101581.83;;;38.88;13.56
69219;BME280;56232;53.384;-2.732;2023-06-22T07:10:27;101586.69;;;38.64;13.28
69219;BME280;56232;53.384;-2.732;2023-06-22T07:12:52;101586.64;;;36.42;13.46
69219;BME280;56232;53.384;-2.732;2023-06-22T07:15:18;101586.64;;;35.79;13.48
69219;BME280;56232;53.384;-2.732;2023-06-22T07:17:43;101583.03;;;35.53;13.82
69219;BME280;56232;53.384;-2.732;2023-06-22T07:20:10;101581.59;;;37.86;13.23
69219;BME280;56232;53.384;-2.732;2023-06-22T07:22:34;101584.50;;;38.77;12.43
69219;BME280;56232;53.384;-2.732;2023-06-22T07:25:00;101589.37;;;40.32;11.73
69219;BME280;56232;53.384;-2.732;2023-06-22T07:27:25;101587.77;;;39.08;12.24
69219;BME280;56232;53.384;-2.732;2023-06-22T07:29:51;101587.24;;;36.90;13.33
69219;BME280;56232;53.384;-2.732;2023-06-22T07:32:17;101588.48;;;36.26;13.49
69219;BME280;56232;53.384;-2.732;2023-06-22T07:34:42;101588.98;;;36.75;13.30
69219;BME280;56232;53.384;-2.732;2023-06-22T07:37:08;101592.18;;;34.89;14.22
69219;BME280;56232;53.384;-2.732;2023-06-22T07:39:33;101596.86;;;33.48;15.20
69219;BME280;56232;53.384;-2.732;2023-06-22T07:41:59;101594.82;;;31.85;15.64
69219;BME280;56232;53.384;-2.732;2023-06-22T07:44:24;101598.36;;;33.20;15.57
69219;BME280;56232;53.384;-2.732;2023-06-22T07:46:49;101603.50;;;33.97;15.65
69219;BME280;56232;53.384;-2.732;2023-06-22T07:49:16;101599.64;;;36.28;14.53
69219;BME280;56232;53.384;-2.732;2023-06-22T07:51:40;101599.26;;;37.76;13.44
69219;BME280;56232;53.384;-2.732;2023-06-22T07:54:06;101600.14;;;39.06;12.59
69219;BME280;56232;53.384;-2.732;2023-06-22T07:56:32;101593.46;;;40.14;12.26
69219;BME280;56232;53.384;-2.732;2023-06-22T07:58:57;101592.10;;;40.84;11.62
69219;BME280;56232;53.384;-2.732;2023-06-22T08:01:23;101590.14;;;41.05;11.16
69219;BME280;56232;53.384;-2.732;2023-06-22T08:03:48;101590.54;;;42.23;10.95
69219;BME280;56232;53.384;-2.732;2023-06-22T08:06:14;101588.97;;;42.98;10.63
69219;BME280;56232;53.384;-2.732;2023-06-22T08:08:39;101594.30;;;43.36;10.65
69219;BME280;56232;53.384;-2.732;2023-06-22T08:11:05;101599.48;;;43.00;10.19
69219;BME280;56232;53.384;-2.732;2023-06-22T08:13:31;101599.92;;;43.03;10.24
69219;BME280;56232;53.384;-2.732;2023-06-22T08:15:56;101604.14;;;42.92;10.20
69219;BME280;56232;53.384;-2.732;2023-06-22T08:18:21;101603.76;;;43.26;9.67
69219;BME280;56232;53.384;-2.732;2023-06-22T08:20:47;101603.45;;;44.26;9.71
69219;BME280;56232;53.384;-2.732;2023-06-22T08:23:12;101606.49;;;43.93;9.41
69219;BME280;56232;53.384;-2.732;2023-06-22T08:25:38;101606.28;;;43.80;9.56
69219;BME280;56232;53.384;-2.732;2023-06-22T08:28:04;101600.60;;;44.27;9.45
69219;BME280;56232;53.384;-2.732;2023-06-22T08:30:30;101597.65;;;43.89;9.43
69219;BME280;56232;53.384;-2.732;2023-06-22T08:32:54;101597.45;;;44.53;9.19
69219;BME280;56232;53.384;-2.732;2023-06-22T08:35:21;101600.78;;;42.96;9.47
69219;BME280;56232;53.384;-2.732;2023-06-22T08:37:45;101598.69;;;43.24;9.52
69219;BME280;56232;53.384;-2.732;2023-06-22T08:40:11;101599.06;;;43.96;9.54
69219;BME280;56232;53.384;-2.732;2023-06-22T08:42:37;101598.32;;;44.49;9.45
69219;BME280;56232;53.384;-2.732;2023-06-22T08:45:03;101600.92;;;44.96;9.43
69219;BME280;56232;53.384;-2.732;2023-06-22T08:47:28;101599.42;;;45.00;9.20
69219;BME280;56232;53.384;-2.732;2023-06-22T08:49:53;101596.45;;;44.79;9.18
69219;BME280;56232;53.384;-2.732;2023-06-22T08:52:19;101601.64;;;44.09;9.26
69219;BME280;56232;53.384;-2.732;2023-06-22T08:54:44;101597.91;;;44.72;9.48
69219;BME280;56232;53.384;-2.732;2023-06-22T08:57:10;101598.52;;;44.97;9.72
69219;BME280;56232;53.384;-2.732;2023-06-22T08:59:34;101598.15;;;44.65;9.47
69219;BME280;56232;53.384;-2.732;2023-06-22T09:02:00;101598.75;;;45.04;9.45
69219;BME280;56232;53.384;-2.732;2023-06-22T09:04:25;101604.41;;;44.92;9.73
69219;BME280;56232;53.384;-2.732;2023-06-22T09:06:51;101599.07;;;44.39;9.89
69219;BME280;56232;53.384;-2.732;2023-06-22T09:09:17;101595.94;;;44.30;10.03
69219;BME280;56232;53.384;-2.732;2023-06-22T09:11:42;101602.73;;;43.42;10.23
69219;BME280;56232;53.384;-2.732;2023-06-22T09:14:08;101600.71;;;43.46;9.84
69219;BME280;56232;53.384;-2.732;2023-06-22T09:16:33;101599.11;;;43.47;10.57
69219;BME280;56232;53.384;-2.732;2023-06-22T09:18:58;101604.56;;;42.64;11.04
69219;BME280;56232;53.384;-2.732;2023-06-22T09:21:24;101600.70;;;42.34;11.30
69219;BME280;56232;53.384;-2.732;2023-06-22T09:23:49;101599.97;;;42.87;11.21
69219;BME280;56232;53.384;-2.732;2023-06-22T09:26:15;101599.65;;;42.02;10.89
69219;BME280;56232;53.384;-2.732;2023-06-22T09:28:40;101600.94;;;42.82;11.03
69219;BME280;56232;53.384;-2.732;2023-06-22T09:31:06;101598.12;;;41.92;11.46
69219;BME280;56232;53.384;-2.732;2023-06-22T09:33:33;101595.49;;;42.51;11.75
69219;BME280;56232;53.384;-2.732;2023-06-22T09:35:57;101593.19;;;41.44;11.39
69219;BME280;56232;53.384;-2.732;2023-06-22T09:38:22;101596.30;;;42.01;11.62
69219;BME280;56232;53.384;-2.732;2023-06-22T09:40:48;101596.33;;;41.57;11.88
69219;BME280;56232;53.384;-2.732;2023-06-22T09:43:13;101599.32;;;42.13;12.21
69219;BME280;56232;53.384;-2.732;2023-06-22T09:45:39;101597.74;;;41.31;11.84
69219;BME280;56232;53.384;-2.732;2023-06-22T09:48:05;101598.39;;;41.42;12.11
69219;BME280;56232;53.384;-2.732;2023-06-22T09:50:31;101599.29;;;40.22;12.24
69219;BME280;56232;53.384;-2.732;2023-06-22T09:52:55;101595.66;;;41.37;12.23
69219;BME280;56232;53.384;-2.732;2023-06-22T09:55:21;101597.42;;;41.32;12.31
69219;BME280;56232;53.384;-2.732;2023-06-22T09:57:46;101596.35;;;41.12;12.47
69219;BME280;56232;53.384;-2.732;2023-06-22T10:00:13;101597.76;;;41.09;12.06
69219;BME280;56232;53.384;-2.732;2023-06-22T10:02:38;101606.58;;;40.56;12.39
69219;BME280;56232;53.384;-2.732;2023-06-22T10:05:03;101603.97;;;40.50;12.65
69219;BME280;56232;53.384;-2.732;2023-06-22T10:07:28;101601.89;;;40.37;12.77
69219;BME280;56232;53.384;-2.732;2023-06-22T10:09:54;101603.25;;;40.43;12.84
69219;BME280;56232;53.384;-2.732;2023-06-22T10:12:19;101602.75;;;40.96;12.46
69219;BME280;56232;53.384;-2.732;2023-06-22T10:14:45;101601.53;;;40.03;13.01
69219;BME280;56232;53.384;-2.732;2023-06-22T10:17:10;101598.46;;;39.54;12.87
69219;BME280;56232;53.384;-2.732;2023-06-22T10:19:36;101602.94;;;39.03;12.66
69219;BME280;56232;53.384;-2.732;2023-06-22T10:22:01;101602.89;;;39.28;13.36
69219;BME280;56232;53.384;-2.732;2023-06-22T10:24:27;101603.48;;;40.13;13.53
69219;BME280;56232;53.384;-2.732;2023-06-22T10:26:52;101598.08;;;39.79;13.55
69219;BME280;56232;53.384;-2.732;2023-06-22T10:29:18;101602.78;;;40.02;13.77
69219;BME280;56232;53.384;-2.732;2023-06-22T10:31:43;101599.33;;;39.38;14.04
69219;BME280;56232;53.384;-2.732;2023-06-22T10:34:09;101594.68;;;38.96;13.99
69219;BME280;56232;53.384;-2.732;2023-06-22T10:36:34;101589.87;;;38.87;13.72
69219;BME280;56232;53.384;-2.732;2023-06-22T10:39:00;101595.42;;;39.73;13.88
69219;BME280;56232;53.384;-2.732;2023-06-22T10:41:25;101596.46;;;39.38;13.74
69219;BME280;56232;53.384;-2.732;2023-06-22T10:43:51;101599.05;;;39.62;14.38
69219;BME280;56232;53.384;-2.732;2023-06-22T10:46:16;101603.55;;;38.34;14.69
69219;BME280;56232;53.384;-2.732;2023-06-22T10:48:42;101599.89;;;39.07;14.50
69219;BME280;56232;53.384;-2.732;2023-06-22T10:51:07;101601.90;;;38.60;14.10
69219;BME280;56232;53.384;-2.732;2023-06-22T10:53:33;101605.86;;;39.05;13.93
69219;BME280;56232;53.384;-2.732;2023-06-22T10:55:58;101610.31;;;39.10;14.23
69219;BME280;56232;53.384;-2.732;2023-06-22T10:58:24;101609.24;;;37.21;15.46
69219;BME280;56232;53.384;-2.732;2023-06-22T11:00:49;101615.18;;;35.83;16.56
69219;BME280;56232;53.384;-2.732;2023-06-22T11:03:15;101617.10;;;34.18;17.73
69219;BME280;56232;53.384;-2.732;2023-06-22T11:05:40;101619.40;;;33.67;18.07
69219;BME280;56232;53.384;-2.732;2023-06-22T11:08:06;101617.41;;;34.22;17.75
69219;BME280;56232;53.384;-2.732;2023-06-22T11:10:32;101615.08;;;34.29;17.17
69219;BME280;56232;53.384;-2.732;2023-06-22T11:12:57;101606.58;;;34.23;17.51
69219;BME280;56232;53.384;-2.732;2023-06-22T11:15:22;101610.55;;;34.27;17.94
69219;BME280;56232;53.384;-2.732;2023-06-22T11:17:48;101608.28;;;34.44;18.14
69219;BME280;56232;53.384;-2.732;2023-06-22T11:20:13;101604.05;;;34.36;18.11
69219;BME280;56232;53.384;-2.732;2023-06-22T11:22:39;101606.42;;;34.53;17.88
69219;BME280;56232;53.384;-2.732;2023-06-22T11:25:05;101605.11;;;33.81;18.79
69219;BME280;56232;53.384;-2.732;2023-06-22T11:27:31;101608.09;;;33.70;18.34
69219;BME280;56232;53.384;-2.732;2023-06-22T11:29:55;101606.19;;;32.58;17.78
69219;BME280;56232;53.384;-2.732;2023-06-22T11:32:21;101604.07;;;31.44;17.52
69219;BME280;56232;53.384;-2.732;2023-06-22T11:34:46;101601.68;;;31.74;17.75
69219;BME280;56232;53.384;-2.732;2023-06-22T11:37:12;101601.47;;;30.74;17.65
69219;BME280;56232;53.384;-2.732;2023-06-22T11:39:37;101598.03;;;29.88;17.74
69219;BME280;56232;53.384;-2.732;2023-06-22T11:42:03;101595.53;;;30.60;17.82
69219;BME280;56232;53.384;-2.732;2023-06-22T11:44:28;101592.63;;;30.10;17.78
69219;BME280;56232;53.384;-2.732;2023-06-22T11:46:55;101591.61;;;31.64;17.43
69219;BME280;56232;53.384;-2.732;2023-06-22T11:49:19;101588.93;;;31.55;17.00
69219;BME280;56232;53.384;-2.732;2023-06-22T11:51:45;101591.06;;;31.41;17.27
69219;BME280;56232;53.384;-2.732;2023-06-22T11:54:10;101595.12;;;31.52;17.46
69219;BME280;56232;53.384;-2.732;2023-06-22T11:56:36;101596.95;;;31.57;17.45
69219;BME280;56232;53.384;-2.732;2023-06-22T11:59:01;101595.70;;;32.18;17.34
69219;BME280;56232;53.384;-2.732;2023-06-22T12:01:27;101599.17;;;32.51;17.28
69219;BME280;56232;53.384;-2.732;2023-06-22T12:03:52;101592.94;;;32.46;17.04
69219;BME280;56232;53.384;-2.732;2023-06-22T12:06:18;101589.29;;;33.48;17.02
69219;BME280;56232;53.384;-2.732;2023-06-22T12:08:43;101592.76;;;33.12;16.51
69219;BME280;56232;53.384;-2.732;2023-06-22T12:11:09;101591.85;;;33.30;16.44
69219;BME280;56232;53.384;-2.732;2023-06-22T12:13:34;101589.91;;;33.66;16.69
69219;BME280;56232;53.384;-2.732;2023-06-22T12:16:00;101586.89;;;32.37;17.09
69219;BME280;56232;53.384;-2.732;2023-06-22T12:18:25;101587.30;;;32.39;17.17
69219;BME280;56232;53.384;-2.732;2023-06-22T12:20:51;101584.05;;;31.87;16.99
69219;BME280;56232;53.384;-2.732;2023-06-22T12:23:16;101586.70;;;31.53;17.17
69219;BME280;56232;53.384;-2.732;2023-06-22T12:25:42;101584.39;;;31.41;17.18
69219;BME280;56232;53.384;-2.732;2023-06-22T12:28:07;101580.91;;;31.26;17.24
69219;BME280;56232;53.384;-2.732;2023-06-22T12:30:33;101582.94;;;30.86;17.65
69219;BME280;56232;53.384;-2.732;2023-06-22T12:32:58;101581.81;;;31.90;17.89